Time;durP1;ratioP1;P1;durP2;ratioP2;P2;SDS_P1;SDS_P2;PMS_P1;PMS_P2;Temp;Humidity;BMP_temperature;BMP_pressure;BME280_temperature;BME280_humidity;BME280_pressure;Samples;Min_cycle;Max_cycle;Signal;HPM_P1;HPM_P2
2022/12/10 00:00:50;;;;;;;4.75;2.78;;;19.30;53.50;;;;;;4973759;28;20050;-57
2022/12/10 00:03:16;;;;;;;4.32;2.55;;;19.30;53.50;;;;;;4972522;28;20046;-57
2022/12/10 00:05:41;;;;;;;4.07;2.65;;;19.30;53.40;;;;;;4973386;28;20047;-57
2022/12/10 00:08:07;;;;;;;4.53;2.50;;;19.30;53.40;;;;;;4973503;28;20122;-57
2022/12/10 00:10:32;;;;;;;4.38;2.55;;;19.30;53.30;;;;;;4972855;28;20443;-57
2022/12/10 00:12:58;;;;;;;3.30;2.53;;;19.20;53.20;;;;;;4973763;28;20043;-56
2022/12/10 00:15:24;;;;;;;3.38;2.20;;;19.20;53.20;;;;;;4973274;28;20047;-56
2022/12/10 00:17:49;;;;;;;3.55;2.65;;;19.20;53.80;;;;;;4973039;28;20130;-57
2022/12/10 00:20:15;;;;;;;3.55;2.40;;;19.20;53.10;;;;;;4973040;28;20043;-57
2022/12/10 00:22:40;;;;;;;4.07;2.53;;;19.20;53.10;;;;;;4973812;28;20499;-56
2022/12/10 00:25:06;;;;;;;4.80;2.65;;;19.20;53.00;;;;;;4972989;28;20069;-57
2022/12/10 00:27:32;;;;;;;4.22;2.45;;;19.20;53.00;;;;;;4973340;28;20043;-56
2022/12/10 00:29:57;;;;;;;4.13;2.50;;;19.20;53.00;;;;;;4973700;28;20085;-57
2022/12/10 00:32:23;;;;;;;4.00;2.47;;;19.20;53.00;;;;;;4975517;28;20043;-57
2022/12/10 00:34:48;;;;;;;4.05;2.50;;;19.10;53.00;;;;;;4977260;28;20042;-57
2022/12/10 00:37:14;;;;;;;5.00;2.80;;;19.10;53.00;;;;;;4976888;28;20073;-57
2022/12/10 00:39:39;;;;;;;4.75;2.60;;;19.10;53.00;;;;;;4976445;28;20047;-55
2022/12/10 00:42:05;;;;;;;4.85;2.53;;;19.10;52.90;;;;;;4976917;28;20054;-55
2022/12/10 00:44:30;;;;;;;3.45;2.67;;;19.10;53.00;;;;;;4976642;28;20132;-57
2022/12/10 00:46:56;;;;;;;3.97;2.78;;;19.10;52.90;;;;;;4976430;28;20189;-57
2022/12/10 00:49:24;;;;;;;4.13;2.70;;;19.10;52.90;;;;;;4975281;28;20046;-57
2022/12/10 00:51:49;;;;;;;3.70;2.47;;;19.00;52.90;;;;;;4977083;28;20051;-57
2022/12/10 00:54:15;;;;;;;4.82;2.85;;;19.00;52.90;;;;;;4976118;28;20045;-57
2022/12/10 00:56:41;;;;;;;4.90;2.80;;;19.00;52.80;;;;;;4976950;28;20050;-57
2022/12/10 00:59:06;;;;;;;4.28;2.80;;;19.00;52.80;;;;;;4976994;28;20043;-57
2022/12/10 01:01:34;;;;;;;3.88;2.53;;;19.00;52.80;;;;;;4975760;28;20050;-57
2022/12/10 01:04:02;;;;;;;5.20;2.60;;;19.00;52.70;;;;;;4976487;28;20050;-57
2022/12/10 01:06:30;;;;;;;4.18;2.60;;;19.00;52.80;;;;;;4975665;28;20042;-57
2022/12/10 01:08:57;;;;;;;3.83;2.17;;;19.00;52.70;;;;;;4976844;28;20097;-57
2022/12/10 01:11:24;;;;;;;4.43;2.92;;;19.00;52.70;;;;;;4976334;28;20046;-57
2022/12/10 01:13:50;;;;;;;4.57;2.85;;;18.90;52.70;;;;;;4974759;28;20506;-58
2022/12/10 01:16:17;;;;;;;4.22;2.63;;;19.00;52.70;;;;;;4976130;28;20406;-57
2022/12/10 01:18:43;;;;;;;4.35;2.67;;;19.00;52.70;;;;;;4976157;28;20451;-58
2022/12/10 01:21:11;;;;;;;4.65;2.60;;;19.00;52.70;;;;;;4975167;28;20051;-57
2022/12/10 01:23:38;;;;;;;4.72;2.67;;;18.90;52.60;;;;;;4976431;28;20046;-57
2022/12/10 01:26:08;;;;;;;3.80;2.47;;;18.90;52.60;;;;;;4976315;28;20136;-57
2022/12/10 01:28:35;;;;;;;3.28;2.50;;;18.90;52.60;;;;;;4975839;28;20054;-57
2022/12/10 01:31:05;;;;;;;5.50;3.00;;;18.90;52.50;;;;;;4976489;28;20042;-58
2022/12/10 01:33:30;;;;;;;4.00;2.42;;;18.90;52.50;;;;;;4975762;28;20047;-57
2022/12/10 01:36:01;;;;;;;5.28;2.92;;;18.90;52.50;;;;;;4975577;28;20406;-57
2022/12/10 01:38:26;;;;;;;4.13;2.67;;;18.90;52.50;;;;;;4976022;28;20090;-57
2022/12/10 01:40:52;;;;;;;4.40;2.60;;;18.90;52.50;;;;;;4975459;28;20070;-57
2022/12/10 01:43:17;;;;;;;4.10;2.80;;;18.90;52.50;;;;;;4973892;28;20050;-57
2022/12/10 01:45:43;;;;;;;4.45;2.50;;;18.80;52.40;;;;;;4976109;28;20050;-57
2022/12/10 01:48:08;;;;;;;4.28;2.70;;;18.80;52.40;;;;;;4975535;28;20572;-57
2022/12/10 01:50:34;;;;;;;3.72;2.50;;;18.80;52.40;;;;;;4973931;28;20051;-57
2022/12/10 01:52:59;;;;;;;4.82;2.63;;;18.80;52.40;;;;;;4974515;28;20097;-57
2022/12/10 01:55:40;;;;;;;4.68;2.53;;;18.80;52.30;;;;;;4974399;28;20514;-57
2022/12/10 01:58:05;;;;;;;3.67;2.35;;;18.80;52.40;;;;;;4975774;28;20058;-56
2022/12/10 02:00:32;;;;;;;3.55;2.50;;;18.80;52.40;;;;;;4975540;28;20043;-57
2022/12/10 02:03:05;;;;;;;5.07;2.88;;;18.80;52.40;;;;;;4973532;28;20449;-57
2022/12/10 02:05:36;;;;;;;3.67;2.55;;;18.80;52.40;;;;;;4973919;28;20068;-57
2022/12/10 02:08:19;;;;;;;4.03;2.83;;;18.80;52.30;;;;;;4958869;28;20043;-57
2022/12/10 02:11:11;;;;;;;4.65;2.78;;;18.80;52.30;;;;;;4973678;28;20062;-56
2022/12/10 02:13:42;;;;;;;5.13;3.00;;;18.80;52.20;;;;;;4974391;28;20507;-56
2022/12/10 02:16:34;;;;;;;5.65;2.88;;;18.80;52.20;;;;;;4958129;28;20050;-57
2022/12/10 02:19:12;;;;;;;3.97;2.85;;;18.80;52.10;;;;;;4969151;28;20054;-56
2022/12/10 02:21:39;;;;;;;3.65;2.60;;;18.80;52.20;;;;;;4975469;28;20046;-56
2022/12/10 02:24:11;;;;;;;4.88;2.72;;;18.80;52.10;;;;;;4957671;28;20051;-56
2022/12/10 02:26:48;;;;;;;5.20;2.28;;;18.80;52.10;;;;;;4973800;28;20089;-57
2022/12/10 02:29:16;;;;;;;3.72;2.50;;;18.90;52.20;;;;;;4974044;28;20046;-57
2022/12/10 02:32:11;;;;;;;3.60;2.67;;;18.90;52.20;;;;;;4974485;28;20094;-57
2022/12/10 02:34:41;;;;;;;4.30;2.58;;;18.90;52.10;;;;;;4973041;28;20062;-57
2022/12/10 02:37:10;;;;;;;3.80;2.60;;;18.90;52.20;;;;;;4958390;28;20101;-56
2022/12/10 02:39:38;;;;;;;4.43;3.33;;;18.90;52.20;;;;;;4956940;28;20384;-57
2022/12/10 02:42:04;;;;;;;4.88;2.60;;;18.90;52.20;;;;;;4957708;28;20092;-56
2022/12/10 02:44:30;;;;;;;4.03;2.60;;;18.90;52.20;;;;;;4957275;28;20055;-57
2022/12/10 02:46:56;;;;;;;3.95;2.50;;;18.90;52.20;;;;;;4956989;28;20051;-57
2022/12/10 02:49:22;;;;;;;4.18;2.90;;;18.90;52.10;;;;;;4957358;28;20047;-57
2022/12/10 02:51:47;;;;;;;3.78;2.50;;;18.90;52.80;;;;;;4973433;28;20507;-57
2022/12/10 02:54:51;;;;;;;3.72;2.60;;;18.90;52.80;;;;;;4973875;28;20376;-57
2022/12/10 02:57:35;;;;;;;4.63;2.80;;;18.90;52.00;;;;;;4952713;29;20046;-57
2022/12/10 03:00:12;;;;;;;4.18;2.90;;;18.90;52.00;;;;;;4952366;29;20431;-57
2022/12/10 03:02:52;;;;;;;4.70;3.05;;;18.90;52.00;;;;;;4946647;29;20051;-56
2022/12/10 03:05:22;;;;;;;4.20;3.03;;;18.90;52.00;;;;;;4953068;29;20048;-57
2022/12/10 03:07:52;;;;;;;4.10;2.78;;;18.90;52.00;;;;;;4952991;29;20404;-56
2022/12/10 03:10:42;;;;;;;4.50;3.10;;;18.80;51.90;;;;;;4953919;29;20542;-56
2022/12/10 03:13:09;;;;;;;4.00;2.50;;;18.90;51.90;;;;;;4953442;28;20051;-57
2022/12/10 03:15:36;;;;;;;5.00;3.08;;;18.90;52.00;;;;;;4954095;28;20054;-56
2022/12/10 03:18:02;;;;;;;4.50;2.83;;;18.80;51.90;;;;;;4955062;28;20097;-58
2022/12/10 03:20:28;;;;;;;4.10;2.85;;;18.80;51.90;;;;;;4953694;28;20622;-57
2022/12/10 03:22:54;;;;;;;4.53;2.92;;;18.80;51.80;;;;;;4954034;28;20590;-57
2022/12/10 03:25:22;;;;;;;4.57;2.88;;;18.80;51.90;;;;;;4953438;29;20043;-57
2022/12/10 03:27:49;;;;;;;5.75;3.38;;;18.80;51.80;;;;;;4953014;29;20491;-57
2022/12/10 03:30:15;;;;;;;4.20;3.17;;;18.80;51.80;;;;;;4953595;29;20086;-57
2022/12/10 03:32:40;;;;;;;5.13;3.03;;;18.80;51.80;;;;;;4954026;29;20071;-57
2022/12/10 03:35:06;;;;;;;5.15;3.10;;;18.80;51.70;;;;;;4952609;29;20058;-57
2022/12/10 03:37:32;;;;;;;4.30;2.90;;;18.80;51.80;;;;;;4953121;29;20154;-57
2022/12/10 03:39:58;;;;;;;4.90;3.47;;;18.80;51.80;;;;;;4953637;29;20051;-57
2022/12/10 03:42:23;;;;;;;6.05;3.20;;;18.80;51.70;;;;;;4953869;28;20134;-57
2022/12/10 03:44:50;;;;;;;4.10;2.80;;;18.90;51.70;;;;;;4953269;29;20082;-57
2022/12/10 03:47:15;;;;;;;4.10;3.03;;;18.80;51.70;;;;;;4954534;28;20042;-57
2022/12/10 03:49:44;;;;;;;4.28;3.05;;;18.80;51.60;;;;;;4953618;28;20069;-58
2022/12/10 03:52:10;;;;;;;4.85;3.30;;;18.90;51.70;;;;;;4954347;28;20045;-57
2022/12/10 03:54:37;;;;;;;4.85;3.03;;;18.90;51.70;;;;;;4954760;28;20466;-58
2022/12/10 03:57:02;;;;;;;3.50;2.70;;;18.90;51.70;;;;;;4953971;28;20491;-57
2022/12/10 03:59:28;;;;;;;4.05;2.90;;;18.90;51.60;;;;;;4953868;28;20054;-57
2022/12/10 04:01:53;;;;;;;4.50;2.83;;;18.90;51.60;;;;;;4954385;28;20050;-57
2022/12/10 04:04:19;;;;;;;4.40;3.03;;;18.90;51.60;;;;;;4966718;28;20085;-57
2022/12/10 04:06:45;;;;;;;4.93;3.40;;;19.00;51.60;;;;;;4977978;28;20046;-57
2022/12/10 04:09:11;;;;;;;4.65;2.97;;;19.00;51.60;;;;;;4979741;28;20038;-57
2022/12/10 04:11:36;;;;;;;4.47;3.22;;;19.00;51.60;;;;;;4979169;28;20039;-57
2022/12/10 04:16:46;;;;;;;5.20;3.38;;;19.00;51.50;;;;;;4979302;28;20055;-57
2022/12/10 04:19:13;;;;;;;4.97;2.92;;;19.00;51.50;;;;;;4978495;28;20050;-57
2022/12/10 04:27:16;;;;;;;5.40;3.47;;;19.00;51.40;;;;;;4979773;28;20046;-57
2022/12/10 04:29:41;;;;;;;5.85;3.38;;;19.00;51.40;;;;;;4978687;28;20144;-57
2022/12/10 04:32:07;;;;;;;5.50;3.20;;;19.00;51.40;;;;;;4979500;28;20086;-57
2022/12/10 04:34:33;;;;;;;5.85;3.40;;;19.00;51.40;;;;;;4979341;28;20061;-56
2022/12/10 04:36:58;;;;;;;4.68;2.90;;;19.10;51.40;;;;;;4979983;28;20039;-56
2022/12/10 04:39:24;;;;;;;5.90;3.58;;;19.10;51.30;;;;;;4978638;28;20149;-57
2022/12/10 04:41:50;;;;;;;4.05;2.83;;;19.00;51.20;;;;;;4978169;28;20050;-57
2022/12/10 04:44:16;;;;;;;5.07;3.42;;;19.10;51.40;;;;;;4979339;28;20061;-57
2022/12/10 04:46:41;;;;;;;5.50;3.55;;;19.10;51.30;;;;;;4979259;28;20039;-57
2022/12/10 04:49:07;;;;;;;4.88;3.00;;;19.10;51.30;;;;;;4979997;28;20047;-57
2022/12/10 04:51:33;;;;;;;4.43;3.38;;;19.10;51.30;;;;;;4978270;28;20078;-56
2022/12/10 04:53:58;;;;;;;4.57;3.40;;;19.10;51.30;;;;;;4979992;28;20044;-56
2022/12/10 04:56:24;;;;;;;4.22;3.40;;;19.10;51.20;;;;;;4979268;28;20049;-57
2022/12/10 04:58:50;;;;;;;5.47;3.40;;;19.20;51.30;;;;;;4978821;28;20074;-56
2022/12/10 05:01:15;;;;;;;5.25;3.55;;;19.20;51.30;;;;;;4979109;28;20078;-56
2022/12/10 05:03:41;;;;;;;5.40;3.92;;;19.20;51.20;;;;;;4979186;28;20039;-56
2022/12/10 05:06:09;;;;;;;4.55;3.13;;;19.20;51.20;;;;;;4977993;28;20039;-56
2022/12/10 05:08:35;;;;;;;5.38;3.38;;;19.20;51.20;;;;;;4979537;28;20050;-57
2022/12/10 05:11:02;;;;;;;5.30;3.80;;;19.20;51.20;;;;;;4979211;28;20050;-57
2022/12/10 05:13:27;;;;;;;4.57;3.78;;;19.20;51.20;;;;;;4978416;28;20093;-56
2022/12/10 05:15:53;;;;;;;6.43;3.70;;;19.20;51.20;;;;;;4979705;28;20042;-57
2022/12/10 05:18:19;;;;;;;5.78;3.90;;;19.20;51.20;;;;;;4975929;28;20050;-57
2022/12/10 05:20:44;;;;;;;5.30;3.75;;;19.20;51.10;;;;;;4975552;28;20054;-57
2022/12/10 05:23:28;;;;;;;5.60;3.60;;;19.20;51.10;;;;;;4975998;28;20035;-56
2022/12/10 05:26:07;;;;;;;4.50;3.40;;;19.20;51.00;;;;;;4976621;28;20047;-57
2022/12/10 05:28:34;;;;;;;6.38;3.80;;;19.30;51.10;;;;;;4975481;28;20114;-56
2022/12/10 05:31:00;;;;;;;5.13;3.93;;;19.30;51.00;;;;;;4976206;28;20078;-57
2022/12/10 05:33:26;;;;;;;5.57;3.80;;;19.30;51.00;;;;;;4976064;28;20344;-57
2022/12/10 05:35:59;;;;;;;5.30;3.50;;;19.30;51.00;;;;;;4975584;28;20043;-56
2022/12/10 05:38:25;;;;;;;5.55;3.95;;;19.30;51.00;;;;;;4976175;28;20061;-57
2022/12/10 05:40:51;;;;;;;5.00;3.88;;;19.30;51.00;;;;;;4975366;28;20133;-56
2022/12/10 05:43:17;;;;;;;5.65;3.88;;;19.30;50.90;;;;;;4975343;28;20047;-57
2022/12/10 05:45:42;;;;;;;5.57;3.90;;;19.30;50.90;;;;;;4976232;28;20058;-57
2022/12/10 05:48:13;;;;;;;6.22;4.00;;;19.40;50.90;;;;;;4975342;28;20050;-56
2022/12/10 05:50:39;;;;;;;5.35;3.90;;;19.40;51.00;;;;;;4975980;28;20039;-57
2022/12/10 05:53:04;;;;;;;5.97;4.07;;;19.30;50.90;;;;;;4976187;28;20043;-56
2022/12/10 05:55:32;;;;;;;6.57;3.90;;;19.40;50.80;;;;;;4974907;28;20483;-56
2022/12/10 05:57:58;;;;;;;5.30;3.80;;;19.40;50.90;;;;;;4975729;28;20410;-56
2022/12/10 06:00:24;;;;;;;5.07;3.70;;;19.40;50.90;;;;;;4975235;28;20410;-57
2022/12/10 06:02:50;;;;;;;6.05;3.97;;;19.30;51.50;;;;;;4975089;28;20042;-57
2022/12/10 06:05:16;;;;;;;5.32;4.07;;;19.30;50.80;;;;;;4973824;28;20063;-57
2022/12/10 06:07:41;;;;;;;6.13;4.00;;;19.40;50.80;;;;;;4975559;28;20051;-57
2022/12/10 06:10:07;;;;;;;5.85;3.90;;;19.40;50.80;;;;;;4975039;28;20050;-57
2022/12/10 06:12:33;;;;;;;6.28;4.25;;;19.40;50.80;;;;;;4975410;28;20133;-57
2022/12/10 06:14:58;;;;;;;5.47;3.90;;;19.40;50.80;;;;;;4975448;28;20049;-56
2022/12/10 06:17:24;;;;;;;5.82;4.28;;;19.40;50.80;;;;;;4974109;28;20045;-57
2022/12/10 06:19:49;;;;;;;6.75;4.13;;;19.40;50.80;;;;;;4975381;28;20106;-57
2022/12/10 06:22:15;;;;;;;5.65;4.25;;;19.40;50.80;;;;;;4975205;28;20505;-57
2022/12/10 06:24:41;;;;;;;6.43;4.10;;;19.40;50.70;;;;;;4974694;28;20065;-56
2022/12/10 06:27:07;;;;;;;5.80;4.03;;;19.40;50.80;;;;;;4974052;28;20043;-56
2022/12/10 06:29:32;;;;;;;6.28;4.32;;;19.40;50.60;;;;;;4974804;28;20109;-57
2022/12/10 06:31:58;;;;;;;6.90;4.43;;;19.40;50.60;;;;;;4974451;28;20043;-57
2022/12/10 06:34:23;;;;;;;6.97;4.00;;;19.50;50.70;;;;;;4974737;28;20050;-57
2022/12/10 06:36:49;;;;;;;6.95;4.22;;;19.50;50.70;;;;;;4975018;28;20046;-56
2022/12/10 06:39:14;;;;;;;6.47;3.75;;;19.50;50.60;;;;;;4973800;28;20050;-57
2022/12/10 06:41:43;;;;;;;5.93;4.32;;;19.50;50.60;;;;;;4975081;28;20109;-57
2022/12/10 06:44:10;;;;;;;5.72;3.97;;;19.50;50.60;;;;;;4973716;28;20055;-57
2022/12/10 06:46:35;;;;;;;6.60;4.68;;;19.50;50.60;;;;;;4974740;28;20062;-57
2022/12/10 06:49:01;;;;;;;6.05;4.10;;;19.50;51.20;;;;;;4974766;28;20047;-57
2022/12/10 06:51:27;;;;;;;8.05;4.55;;;19.50;50.50;;;;;;4973843;28;20050;-57
2022/12/10 06:53:52;;;;;;;5.90;4.45;;;19.50;50.50;;;;;;4974491;28;20043;-57
2022/12/10 06:56:18;;;;;;;6.13;4.30;;;19.50;50.50;;;;;;4973411;28;20050;-56
2022/12/10 06:58:44;;;;;;;6.25;4.53;;;19.50;50.50;;;;;;4974022;28;20047;-56
2022/12/10 07:01:12;;;;;;;7.70;4.53;;;19.50;50.40;;;;;;4974492;28;20065;-56
2022/12/10 07:03:37;;;;;;;7.40;4.30;;;19.50;50.40;;;;;;4974563;28;20057;-56
2022/12/10 07:06:03;;;;;;;5.60;4.40;;;19.50;50.40;;;;;;4974036;28;20047;-56
2022/12/10 07:08:29;;;;;;;6.75;4.63;;;19.50;50.40;;;;;;4974264;28;20046;-56
2022/12/10 07:10:55;;;;;;;6.63;4.20;;;19.50;50.40;;;;;;4974366;28;20137;-56
2022/12/10 07:13:20;;;;;;;7.13;4.90;;;19.50;50.40;;;;;;4973455;28;20372;-56
2022/12/10 07:15:46;;;;;;;6.03;4.38;;;19.60;50.40;;;;;;4974245;28;20129;-56
2022/12/10 07:18:12;;;;;;;6.63;4.75;;;19.60;50.40;;;;;;4974298;28;20053;-57
2022/12/10 07:20:37;;;;;;;6.82;4.68;;;19.60;50.40;;;;;;4973418;28;20102;-55
2022/12/10 07:23:03;;;;;;;6.40;4.95;;;19.60;50.40;;;;;;4974259;28;20047;-55
2022/12/10 07:25:29;;;;;;;6.47;4.82;;;19.60;50.40;;;;;;4973906;28;20081;-56
2022/12/10 07:27:55;;;;;;;6.07;4.25;;;19.60;50.30;;;;;;4973591;28;20080;-55
2022/12/10 07:30:21;;;;;;;5.82;4.15;;;19.60;50.30;;;;;;4973550;28;20129;-55
2022/12/10 07:32:46;;;;;;;7.53;4.47;;;19.60;50.20;;;;;;4974339;28;20786;-55
2022/12/10 07:35:12;;;;;;;5.80;4.50;;;19.60;50.20;;;;;;4973016;28;20077;-57
2022/12/10 07:37:37;;;;;;;10.95;4.70;;;19.60;50.30;;;;;;4973991;28;20035;-57
2022/12/10 07:40:03;;;;;;;10.60;5.10;;;19.60;50.20;;;;;;4973268;28;20047;-56
2022/12/10 07:42:29;;;;;;;7.90;5.07;;;19.60;50.10;;;;;;4972325;28;20058;-57
2022/12/10 07:44:54;;;;;;;7.75;4.80;;;19.60;50.10;;;;;;4972923;28;20054;-57
2022/12/10 07:47:20;;;;;;;7.40;5.00;;;19.70;50.20;;;;;;4972661;28;20105;-57
2022/12/10 07:49:45;;;;;;;8.07;4.90;;;19.60;50.10;;;;;;4974035;28;20046;-57
2022/12/10 07:52:11;;;;;;;7.53;4.55;;;19.60;50.10;;;;;;4973502;28;20046;-57
2022/12/10 07:54:37;;;;;;;6.97;4.80;;;19.60;50.20;;;;;;4973054;28;20399;-57
2022/12/10 07:57:02;;;;;;;6.78;4.55;;;19.60;50.30;;;;;;4973580;28;20047;-57
2022/12/10 07:59:28;;;;;;;8.65;4.88;;;19.60;50.40;;;;;;4973230;28;20117;-57
2022/12/10 08:01:53;;;;;;;7.40;4.50;;;19.70;50.40;;;;;;4972766;28;20047;-57
2022/12/10 08:04:19;;;;;;;8.70;5.43;;;19.60;50.40;;;;;;4973447;28;20093;-59
2022/12/10 08:06:44;;;;;;;7.68;5.53;;;19.60;50.60;;;;;;4975997;28;20491;-58
2022/12/10 08:09:10;;;;;;;7.68;5.20;;;19.70;50.70;;;;;;4972427;28;20053;-58
2022/12/10 08:11:36;;;;;;;8.50;5.20;;;19.70;50.80;;;;;;4973139;28;20069;-57
2022/12/10 08:14:01;;;;;;;6.38;5.05;;;19.70;50.90;;;;;;4973376;28;20070;-57
2022/12/10 08:16:28;;;;;;;10.63;4.95;;;19.70;51.10;;;;;;4972554;28;20046;-57
2022/12/10 08:18:55;;;;;;;7.75;5.18;;;19.70;51.90;;;;;;4973730;28;20094;-57
2022/12/10 08:21:22;;;;;;;7.40;4.55;;;19.70;51.30;;;;;;4972640;28;20384;-57
2022/12/10 08:23:48;;;;;;;6.23;4.30;;;19.80;51.50;;;;;;4972663;28;20614;-57
2022/12/10 08:26:15;;;;;;;7.25;4.72;;;19.80;51.50;;;;;;4973181;28;20055;-57
2022/12/10 08:28:41;;;;;;;7.90;5.05;;;19.80;51.70;;;;;;4973451;28;20054;-57
2022/12/10 08:31:09;;;;;;;8.43;4.88;;;19.80;51.80;;;;;;4972508;28;20047;-57
2022/12/10 08:33:35;;;;;;;6.38;4.57;;;19.80;51.80;;;;;;4973460;28;20042;-57
2022/12/10 08:36:01;;;;;;;6.80;5.30;;;19.80;51.80;;;;;;4973300;28;20054;-57
2022/12/10 08:38:27;;;;;;;7.18;4.80;;;19.80;51.90;;;;;;4972161;28;20042;-58
2022/12/10 08:40:53;;;;;;;8.15;4.80;;;19.80;52.00;;;;;;4973509;28;20129;-57
2022/12/10 08:43:18;;;;;;;7.10;4.50;;;19.80;52.00;;;;;;4972421;28;20534;-58
2022/12/10 08:45:44;;;;;;;6.32;4.55;;;19.90;52.10;;;;;;4972483;28;20057;-57
2022/12/10 08:48:09;;;;;;;7.18;4.38;;;19.90;52.20;;;;;;4973044;28;20054;-57
2022/12/10 08:50:36;;;;;;;6.78;4.40;;;19.90;52.40;;;;;;4973288;28;20057;-58
2022/12/10 08:53:02;;;;;;;8.68;4.70;;;19.90;52.40;;;;;;4975314;28;20042;-58
2022/12/10 08:55:27;;;;;;;7.30;4.95;;;19.90;52.50;;;;;;4976500;28;20042;-57
2022/12/10 08:57:53;;;;;;;6.18;4.28;;;19.90;52.40;;;;;;4975983;28;20046;-57
2022/12/10 09:00:18;;;;;;;7.10;4.70;;;19.90;52.50;;;;;;4976668;28;20046;-57
2022/12/10 09:02:45;;;;;;;6.95;4.20;;;19.90;52.60;;;;;;4976689;28;20085;-57
2022/12/10 09:05:10;;;;;;;5.75;4.32;;;20.00;52.70;;;;;;4975531;28;20390;-57
2022/12/10 09:07:36;;;;;;;7.53;4.50;;;19.90;52.40;;;;;;4976441;28;20047;-57
2022/12/10 09:10:02;;;;;;;7.68;4.63;;;20.00;52.50;;;;;;4976845;28;20043;-57
2022/12/10 09:12:27;;;;;;;6.95;4.68;;;19.90;52.60;;;;;;4975665;28;20109;-57
2022/12/10 09:14:53;;;;;;;6.43;4.38;;;20.00;52.70;;;;;;4975217;28;20482;-58
2022/12/10 09:17:18;;;;;;;5.97;4.43;;;20.00;52.80;;;;;;4981059;28;20498;-56
2022/12/10 09:19:44;;;;;;;6.63;4.40;;;20.00;52.90;;;;;;4982742;28;20038;-57
2022/12/10 09:22:10;;;;;;;8.32;4.40;;;20.00;52.90;;;;;;4981873;28;20482;-57
2022/12/10 09:24:35;;;;;;;6.75;4.55;;;20.00;52.90;;;;;;4984635;28;20045;-57
2022/12/10 09:27:01;;;;;;;6.40;4.78;;;20.00;53.00;;;;;;4983004;28;20043;-56
2022/12/10 09:29:27;;;;;;;6.78;4.30;;;20.00;53.10;;;;;;4983642;28;20090;-57
2022/12/10 09:31:52;;;;;;;6.22;4.38;;;20.00;53.20;;;;;;4977671;28;20046;-57
2022/12/10 09:34:18;;;;;;;7.28;5.00;;;20.10;53.30;;;;;;4971945;28;20494;-57
2022/12/10 09:36:44;;;;;;;6.47;4.55;;;20.00;53.30;;;;;;4965600;28;20039;-57
2022/12/10 09:39:10;;;;;;;7.22;4.85;;;20.10;53.50;;;;;;4975519;28;20391;-57
2022/12/10 09:41:42;;;;;;;7.57;4.88;;;20.10;53.50;;;;;;4974387;28;20062;-57
2022/12/10 09:44:28;;;;;;;6.45;4.53;;;20.10;53.50;;;;;;4974791;28;20514;-57
2022/12/10 09:46:55;;;;;;;6.32;4.60;;;20.10;53.50;;;;;;4973275;28;20122;-58
2022/12/10 09:49:39;;;;;;;6.53;4.53;;;20.10;53.50;;;;;;4974031;28;20053;-57
2022/12/10 09:52:06;;;;;;;6.90;4.43;;;20.10;53.50;;;;;;4975540;28;20126;-58
2022/12/10 09:54:33;;;;;;;6.68;4.25;;;20.10;53.50;;;;;;4974721;28;20057;-57
2022/12/10 09:56:59;;;;;;;6.03;4.32;;;20.10;53.50;;;;;;4958166;28;20043;-58
2022/12/10 09:59:33;;;;;;;6.68;4.65;;;20.20;53.60;;;;;;4973610;28;20047;-58
2022/12/10 10:02:23;;;;;;;6.07;4.40;;;20.20;53.60;;;;;;4971512;28;20108;-61
2022/12/10 10:04:50;;;;;;;9.23;4.40;;;20.20;53.30;;;;;;4955828;28;20039;-58
2022/12/10 10:07:24;;;;;;;7.13;4.53;;;20.20;53.30;;;;;;4955420;28;20491;-58
2022/12/10 10:09:51;;;;;;;6.93;4.32;;;20.20;53.30;;;;;;4969679;28;20043;-58
2022/12/10 10:12:16;;;;;;;7.53;4.63;;;20.20;53.20;;;;;;4941687;28;20039;-59
2022/12/10 10:14:43;;;;;;;8.57;4.95;;;20.20;53.30;;;;;;4955098;28;20043;-57
2022/12/10 10:17:45;;;;;;;7.25;4.60;;;20.20;53.30;;;;;;4954471;28;20047;-60
2022/12/10 10:20:12;;;;;;;7.07;4.57;;;20.30;53.30;;;;;;4943805;28;20134;-59
2022/12/10 10:22:38;;;;;;;6.82;4.55;;;20.20;53.20;;;;;;4956170;28;20035;-58
2022/12/10 10:25:05;;;;;;;6.97;4.18;;;20.20;53.20;;;;;;4969739;28;20403;-59
2022/12/10 10:27:32;;;;;;;5.82;4.47;;;20.20;53.30;;;;;;4969359;28;20039;-58
2022/12/10 10:29:59;;;;;;;6.10;4.03;;;20.20;53.30;;;;;;4954221;28;20047;-57
2022/12/10 10:32:48;;;;;;;6.82;4.50;;;20.20;53.30;;;;;;4969374;28;20057;-57
2022/12/10 10:35:32;;;;;;;7.03;4.40;;;20.20;53.30;;;;;;4974188;28;20038;-57
2022/12/10 10:38:23;;;;;;;6.05;4.50;;;20.30;53.20;;;;;;4971517;28;20050;-57
2022/12/10 10:40:58;;;;;;;8.43;4.68;;;20.30;53.10;;;;;;4974569;28;20062;-58
2022/12/10 10:43:42;;;;;;;7.68;4.90;;;20.20;53.00;;;;;;4972594;28;20403;-58
2022/12/10 10:46:13;;;;;;;6.80;4.60;;;20.20;52.70;;;;;;4975009;28;20105;-57
2022/12/10 10:48:38;;;;;;;7.47;4.68;;;20.20;52.70;;;;;;4957849;28;20053;-57
2022/12/10 10:51:08;;;;;;;6.30;4.20;;;20.20;52.70;;;;;;4974150;28;20043;-57
2022/12/10 10:53:54;;;;;;;6.57;4.80;;;20.20;52.80;;;;;;4974539;28;20050;-58
2022/12/10 10:56:24;;;;;;;7.70;5.30;;;20.20;52.70;;;;;;4974643;28;20050;-59
2022/12/10 10:58:58;;;;;;;9.02;5.03;;;20.20;52.70;;;;;;4973874;28;20057;-58
2022/12/10 11:01:25;;;;;;;8.35;4.80;;;20.20;53.00;;;;;;4974585;28;20051;-59
2022/12/10 11:03:57;;;;;;;8.07;4.47;;;20.20;53.30;;;;;;4973426;28;20046;-58
2022/12/10 11:06:23;;;;;;;6.57;4.50;;;20.20;53.60;;;;;;4972650;28;20051;-58
2022/12/10 11:08:48;;;;;;;7.85;4.90;;;20.30;53.70;;;;;;4973237;28;20134;-58
2022/12/10 11:11:22;;;;;;;8.07;5.03;;;20.30;53.80;;;;;;4972903;28;20078;-59
2022/12/10 11:13:48;;;;;;;6.88;5.03;;;20.30;53.90;;;;;;4957396;28;20054;-58
2022/12/10 11:16:24;;;;;;;6.70;4.47;;;20.30;53.80;;;;;;4972210;28;20046;-59
2022/12/10 11:19:04;;;;;;;7.22;4.95;;;20.20;53.60;;;;;;4973521;28;20054;-58
2022/12/10 11:21:30;;;;;;;7.43;4.35;;;20.30;53.60;;;;;;4973761;28;20050;-58
2022/12/10 11:23:56;;;;;;;7.05;5.07;;;20.30;53.70;;;;;;4974191;28;20057;-58
2022/12/10 11:26:33;;;;;;;7.63;5.13;;;20.20;53.70;;;;;;4973300;28;20418;-57
2022/12/10 11:29:24;;;;;;;8.02;4.68;;;20.20;53.60;;;;;;4973133;28;20049;-57
2022/12/10 11:32:19;;;;;;;8.88;4.75;;;20.20;53.60;;;;;;4972836;28;20043;-56
2022/12/10 11:35:09;;;;;;;7.40;4.78;;;20.10;54.10;;;;;;4973067;28;20050;-57
2022/12/10 11:37:45;;;;;;;9.30;5.07;;;20.20;53.40;;;;;;4974117;28;20122;-57
2022/12/10 11:40:22;;;;;;;7.40;5.05;;;20.10;53.40;;;;;;4971434;28;20497;-57
2022/12/10 11:43:02;;;;;;;8.43;5.60;;;20.10;53.40;;;;;;4973505;28;20129;-57
2022/12/10 11:45:57;;;;;;;8.40;5.18;;;20.10;53.30;;;;;;4973535;28;20050;-57
2022/12/10 11:48:48;;;;;;;6.78;5.22;;;20.00;53.20;;;;;;4971889;28;20498;-57
2022/12/10 11:51:44;;;;;;;8.63;5.10;;;20.00;53.30;;;;;;4995398;28;20053;-58
2022/12/10 11:54:45;;;;;;;9.60;5.35;;;20.00;53.30;;;;;;4981240;28;20042;-57
2022/12/10 11:57:23;;;;;;;7.00;4.85;;;20.00;53.40;;;;;;4953894;28;20377;-58
2022/12/10 12:00:16;;;;;;;8.90;5.80;;;19.90;53.50;;;;;;4952866;29;20051;-58
2022/12/10 12:02:49;;;;;;;7.57;5.00;;;19.90;53.40;;;;;;4971857;28;20035;-57
2022/12/10 12:05:36;;;;;;;10.38;5.13;;;19.90;53.60;;;;;;4979334;28;20484;-58
2022/12/10 12:08:17;;;;;;;7.43;4.57;;;19.90;53.80;;;;;;4973127;28;20059;-59
2022/12/10 12:10:48;;;;;;;10.30;5.53;;;19.90;54.00;;;;;;4972631;28;20043;-59
2022/12/10 12:13:16;;;;;;;9.85;5.40;;;19.90;54.00;;;;;;4977403;28;20054;-58
2022/12/10 12:15:44;;;;;;;7.93;5.35;;;19.90;54.20;;;;;;4977547;28;20097;-59
2022/12/10 12:18:10;;;;;;;;;;;19.80;54.20;;;;;;4973511;28;20157;-59
2022/12/10 12:20:45;;;;;;;9.20;5.88;;;19.80;54.30;;;;;;4973068;28;20081;-58
2022/12/10 12:23:25;;;;;;;7.68;5.38;;;19.80;54.40;;;;;;4979377;28;20125;-58
2022/12/10 12:25:53;;;;;;;12.10;5.95;;;19.80;54.40;;;;;;4974214;28;20057;-58
2022/12/10 12:28:20;;;;;;;8.70;5.72;;;19.80;54.50;;;;;;4959309;28;20039;-58
2022/12/10 12:30:46;;;;;;;8.25;5.63;;;19.80;54.50;;;;;;4975436;28;20134;-58
2022/12/10 12:33:16;;;;;;;9.43;5.55;;;19.80;54.60;;;;;;4944012;28;20197;-58
2022/12/10 12:35:50;;;;;;;10.57;6.13;;;19.80;54.70;;;;;;4961054;28;20046;-57
2022/12/10 12:39:01;;;;;;;9.35;6.22;;;19.80;54.80;;;;;;4968942;28;20494;-57
2022/12/10 12:41:36;;;;;;;11.27;6.03;;;19.80;54.60;;;;;;4970330;28;20062;-58
2022/12/10 12:44:29;;;;;;;9.52;5.32;;;19.80;54.80;;;;;;4982192;28;20051;-57
2022/12/10 12:46:55;;;;;;;8.40;5.30;;;19.80;54.80;;;;;;4986113;28;20078;-58
2022/12/10 12:49:24;;;;;;;8.57;5.63;;;19.80;54.80;;;;;;4985110;28;20073;-57
2022/12/10 12:52:00;;;;;;;;;;;19.80;55.60;;;;;;4996052;28;20133;-58
2022/12/10 12:54:25;;;;;;;8.63;5.88;;;19.80;54.90;;;;;;4996208;28;19965;-57
2022/12/10 12:57:03;;;;;;;9.38;5.93;;;19.90;54.90;;;;;;4995480;28;20074;-57
2022/12/10 12:59:50;;;;;;;8.88;5.45;;;19.90;55.00;;;;;;4996154;28;20405;-58
2022/12/10 13:02:21;;;;;;;9.90;5.75;;;19.90;54.90;;;;;;4995775;28;20414;-57
2022/12/10 13:04:47;;;;;;;9.80;6.13;;;19.90;54.90;;;;;;4995323;28;20049;-58
2022/12/10 13:07:15;;;;;;;8.63;5.75;;;19.90;54.90;;;;;;4994370;28;20050;-58